Time;durP1;ratioP1;P1;durP2;ratioP2;P2;SDS_P1;SDS_P2;PMS_P1;PMS_P2;Temp;Humidity;BMP_temperature;BMP_pressure;BME280_temperature;BME280_humidity;BME280_pressure;Samples;Min_cycle;Max_cycle;Signal;HPM_P1;HPM_P2
2021/06/30 00:02:12;;;;;;;11.77;7.60;;;16.00;1.00;;;;;;5054889;28;20401;-74
2021/06/30 00:04:38;;;;;;;12.10;7.30;;;16.00;1.00;;;;;;5057049;28;20600;-74
2021/06/30 00:07:09;;;;;;;17.10;8.20;;;16.10;1.00;;;;;;5067830;28;20647;-75
2021/06/30 00:09:35;;;;;;;13.30;8.07;;;16.10;1.00;;;;;;5053769;28;20647;-76
2021/06/30 00:12:02;;;;;;;15.40;7.80;;;16.10;1.00;;;;;;5053737;28;20409;-76
2021/06/30 00:14:28;;;;;;;15.50;7.60;;;16.20;1.00;;;;;;5054286;28;21006;-76
2021/06/30 00:16:54;;;;;;;13.00;7.23;;;16.20;1.00;;;;;;5053850;28;20482;-76
2021/06/30 00:19:20;;;;;;;12.90;7.57;;;16.30;1.00;;;;;;5065127;28;20179;-76
2021/06/30 00:21:45;;;;;;;12.00;7.23;;;16.30;1.00;;;;;;5056856;28;20446;-76
2021/06/30 00:24:12;;;;;;;11.97;7.63;;;;;;;;;;5054034;28;20394;-76
2021/06/30 00:26:38;;;;;;;12.37;6.97;;;16.30;1.00;;;;;;5066819;28;20180;-76
2021/06/30 00:29:08;;;;;;;15.37;7.47;;;16.30;1.00;;;;;;5053384;28;20422;-76
2021/06/30 00:31:33;;;;;;;10.23;7.37;;;16.30;1.00;;;;;;5053535;28;20376;-76
2021/06/30 00:34:03;;;;;;;14.30;7.43;;;16.30;1.00;;;;;;5052805;28;20394;-76
2021/06/30 00:36:34;;;;;;;16.10;7.17;;;16.40;1.00;;;;;;5053154;28;20156;-76
2021/06/30 00:39:00;;;;;;;10.13;6.57;;;;;;;;;;5052908;28;20480;-76
2021/06/30 00:41:27;;;;;;;13.10;7.40;;;16.40;1.00;;;;;;5053385;28;20775;-76
2021/06/30 00:43:52;;;;;;;13.70;6.80;;;16.40;1.00;;;;;;5054071;28;20414;-76
2021/06/30 00:46:32;;;;;;;13.60;6.93;;;16.40;1.00;;;;;;5058418;28;20743;-76
2021/06/30 00:48:59;;;;;;;7.63;6.77;;;16.40;1.00;;;;;;5053142;28;20160;-76
2021/06/30 00:51:26;;;;;;;8.33;6.17;;;16.40;1.00;;;;;;5052766;28;20433;-77
2021/06/30 00:53:52;;;;;;;14.80;6.53;;;16.40;1.00;;;;;;5066323;28;20408;-74
2021/06/30 00:56:24;;;;;;;16.03;6.37;;;;;;;;;;5068341;28;20483;-74
2021/06/30 00:58:55;;;;;;;14.90;6.00;;;16.40;1.00;;;;;;5069857;28;20474;-74
2021/06/30 01:01:21;;;;;;;8.47;5.90;;;16.30;1.00;;;;;;5052754;28;20387;-74
2021/06/30 01:03:48;;;;;;;14.53;6.03;;;16.30;1.00;;;;;;5061433;28;20478;-74
2021/06/30 01:06:14;;;;;;;14.60;6.27;;;;;;;;;;5071100;28;20452;-74
2021/06/30 01:08:40;;;;;;;18.20;6.23;;;;;;;;;;5067884;28;20411;-74
2021/06/30 01:11:07;;;;;;;7.70;5.73;;;16.00;1.00;;;;;;5052113;28;20381;-74
2021/06/30 01:13:32;;;;;;;13.07;6.37;;;16.00;1.00;;;;;;5051516;28;20464;-74
2021/06/30 01:15:58;;;;;;;14.47;6.10;;;15.90;1.00;;;;;;5052098;28;20454;-74
2021/06/30 01:18:25;;;;;;;9.23;6.00;;;15.90;1.00;;;;;;5052664;28;20168;-74
2021/06/30 01:20:52;;;;;;;12.53;6.10;;;15.80;1.00;;;;;;5072201;28;20247;-74
2021/06/30 01:23:19;;;;;;;10.47;6.50;;;15.80;1.00;;;;;;5072800;28;20372;-74
2021/06/30 01:25:45;;;;;;;11.77;6.37;;;15.70;1.00;;;;;;5057294;28;20479;-74
2021/06/30 01:28:11;;;;;;;9.40;6.07;;;15.60;1.00;;;;;;5051569;28;20497;-74
2021/06/30 01:30:37;;;;;;;19.33;6.37;;;15.60;1.00;;;;;;5052359;28;20472;-74
2021/06/30 01:33:03;;;;;;;19.03;7.60;;;15.60;1.00;;;;;;5053145;28;20500;-74
2021/06/30 01:35:29;;;;;;;21.63;6.63;;;15.50;1.00;;;;;;5052190;28;20533;-74
2021/06/30 01:37:55;;;;;;;28.83;8.30;;;15.60;1.00;;;;;;5055772;28;20542;-74
2021/06/30 01:40:21;;;;;;;18.13;6.70;;;15.60;1.00;;;;;;5063004;28;20260;-74
2021/06/30 01:42:49;;;;;;;10.10;6.57;;;15.60;1.00;;;;;;5054472;28;20735;-73
2021/06/30 01:45:15;;;;;;;20.30;7.17;;;15.60;1.00;;;;;;5052020;28;20472;-74
2021/06/30 01:47:41;;;;;;;14.90;7.13;;;15.70;1.00;;;;;;5052091;28;20422;-74
2021/06/30 01:50:08;;;;;;;11.43;6.50;;;15.70;1.00;;;;;;5051952;28;20401;-74
2021/06/30 01:52:34;;;;;;;9.97;6.07;;;15.70;1.00;;;;;;5052904;28;20468;-73
2021/06/30 01:55:00;;;;;;;11.10;6.00;;;15.70;1.00;;;;;;5057832;28;20427;-76
2021/06/30 01:57:26;;;;;;;10.13;6.90;;;;;;;;;;5058944;28;20763;-76
2021/06/30 01:59:52;;;;;;;10.97;6.60;;;15.80;1.00;;;;;;5056281;28;20863;-76
2021/06/30 02:02:18;;;;;;;10.57;6.70;;;;;;;;;;5056053;28;20369;-76
2021/06/30 02:04:53;;;;;;;14.20;7.00;;;15.80;1.00;;;;;;5056179;28;20618;-76
2021/06/30 02:07:19;;;;;;;9.63;6.40;;;15.90;1.00;;;;;;5055694;28;20430;-76
2021/06/30 02:09:44;;;;;;;10.47;7.00;;;15.90;1.00;;;;;;5057031;28;20437;-73
2021/06/30 02:12:10;;;;;;;17.40;7.30;;;15.90;1.00;;;;;;5055609;28;20389;-73
2021/06/30 02:14:36;;;;;;;18.77;7.23;;;15.90;1.00;;;;;;5055616;28;20644;-74
2021/06/30 02:17:02;;;;;;;18.93;7.57;;;16.00;1.00;;;;;;5054714;28;20183;-74
2021/06/30 02:19:27;;;;;;;8.40;6.50;;;16.00;1.00;;;;;;5055932;28;20156;-74
2021/06/30 02:21:53;;;;;;;9.07;6.60;;;15.90;1.00;;;;;;5055355;28;20420;-74
2021/06/30 02:24:19;;;;;;;11.30;6.37;;;15.90;1.00;;;;;;5056152;28;20553;-73
2021/06/30 02:26:44;;;;;;;8.43;6.17;;;15.90;1.00;;;;;;5059760;28;20186;-74
2021/06/30 02:29:10;;;;;;;7.67;5.70;;;15.80;1.00;;;;;;5075942;28;20625;-74
2021/06/30 02:31:36;;;;;;;6.73;5.70;;;;;;;;;;5075810;28;20162;-74
2021/06/30 02:34:02;;;;;;;35.07;6.90;;;15.90;1.00;;;;;;5075715;28;20337;-74
2021/06/30 02:36:28;;;;;;;11.30;5.70;;;15.80;1.00;;;;;;5073215;28;20449;-74
2021/06/30 02:38:56;;;;;;;11.00;5.90;;;15.70;1.00;;;;;;5055959;28;20250;-74
2021/06/30 02:41:22;;;;;;;15.43;5.20;;;15.70;1.00;;;;;;5071886;28;20409;-74
2021/06/30 02:43:48;;;;;;;14.90;5.93;;;15.60;1.00;;;;;;5074924;28;20371;-74
2021/06/30 02:46:13;;;;;;;13.17;5.47;;;15.60;1.00;;;;;;5073488;28;20216;-74
2021/06/30 02:48:39;;;;;;;11.20;5.73;;;15.50;1.00;;;;;;5054741;28;20195;-74
2021/06/30 02:51:05;;;;;;;11.70;5.60;;;15.40;1.00;;;;;;5068717;28;20178;-73
2021/06/30 02:53:33;;;;;;;8.30;5.40;;;15.40;1.00;;;;;;5060910;28;20194;-74
2021/06/30 02:56:02;;;;;;;15.70;6.70;;;15.40;1.00;;;;;;5055135;28;20615;-74
2021/06/30 02:58:29;;;;;;;15.93;6.83;;;15.30;1.00;;;;;;5054939;28;20397;-74
2021/06/30 03:00:54;;;;;;;10.33;6.20;;;15.20;1.00;;;;;;5055088;28;20421;-73
2021/06/30 03:03:20;;;;;;;10.90;6.10;;;15.20;1.00;;;;;;5054753;28;20398;-73
2021/06/30 03:05:46;;;;;;;8.20;5.00;;;15.20;1.00;;;;;;5054867;28;20197;-73
2021/06/30 03:08:11;;;;;;;18.87;6.20;;;15.20;1.00;;;;;;5057795;28;20369;-74
2021/06/30 03:10:37;;;;;;;7.60;5.87;;;;;;;;;;5053508;28;20172;-76
2021/06/30 03:13:03;;;;;;;12.20;6.13;;;15.30;1.00;;;;;;5054775;28;20168;-76
2021/06/30 03:15:29;;;;;;;12.73;6.60;;;15.30;1.00;;;;;;5054971;28;20477;-76
2021/06/30 03:17:54;;;;;;;10.70;6.00;;;15.30;1.00;;;;;;5054516;28;20168;-76
2021/06/30 03:20:20;;;;;;;13.07;7.03;;;15.40;1.00;;;;;;5054278;28;20663;-76
2021/06/30 03:22:45;;;;;;;9.20;5.80;;;15.50;1.00;;;;;;5054612;28;20685;-76
2021/06/30 03:25:14;;;;;;;10.70;5.87;;;15.50;1.00;;;;;;5054562;28;20253;-73
2021/06/30 03:27:40;;;;;;;15.50;6.73;;;15.60;1.00;;;;;;5054791;28;20647;-74
2021/06/30 03:30:08;;;;;;;10.70;5.93;;;15.60;1.00;;;;;;5054040;28;20405;-74
2021/06/30 03:32:34;;;;;;;9.93;5.90;;;15.60;1.00;;;;;;5054180;28;20838;-74
2021/06/30 03:35:00;;;;;;;9.73;5.73;;;15.70;1.00;;;;;;5054473;28;20408;-74
2021/06/30 03:37:26;;;;;;;12.07;5.93;;;;;;;;;;5055096;28;20222;-73
2021/06/30 03:39:52;;;;;;;9.53;5.70;;;15.70;1.00;;;;;;5054521;28;20880;-76
2021/06/30 03:42:18;;;;;;;12.50;6.10;;;;;;;;;;5053929;28;20403;-76
2021/06/30 03:44:44;;;;;;;16.60;6.40;;;15.70;1.00;;;;;;5054523;28;20164;-76
2021/06/30 03:47:09;;;;;;;14.57;5.77;;;15.70;1.00;;;;;;5054004;28;20414;-77
2021/06/30 03:49:35;;;;;;;14.93;6.03;;;15.80;1.00;;;;;;5072854;28;20586;-75
2021/06/30 03:52:01;;;;;;;18.20;6.17;;;15.80;1.00;;;;;;5056493;28;20172;-75
2021/06/30 03:54:27;;;;;;;7.10;5.60;;;15.90;1.00;;;;;;5053917;28;20176;-76
2021/06/30 03:56:53;;;;;;;16.80;6.33;;;15.90;1.00;;;;;;5066126;28;20179;-76
2021/06/30 03:59:20;;;;;;;17.43;6.53;;;16.00;1.00;;;;;;5058781;28;20445;-77
2021/06/30 04:01:46;;;;;;;9.43;6.03;;;16.00;1.00;;;;;;5063669;28;20432;-76
2021/06/30 04:04:13;;;;;;;9.17;5.40;;;16.00;1.00;;;;;;5074336;28;20400;-76
2021/06/30 04:06:39;;;;;;;9.93;5.83;;;16.00;1.00;;;;;;5071735;28;20417;-76
2021/06/30 04:09:05;;;;;;;12.57;6.20;;;16.10;1.00;;;;;;5060427;28;20393;-76
2021/06/30 04:11:32;;;;;;;9.03;6.27;;;16.10;1.00;;;;;;5053009;28;20501;-75
2021/06/30 04:13:58;;;;;;;11.03;5.57;;;16.10;1.00;;;;;;5053796;28;20418;-74
2021/06/30 04:16:24;;;;;;;11.67;5.83;;;;;;;;;;5053604;28;20525;-74
2021/06/30 04:18:50;;;;;;;12.50;5.63;;;16.10;1.00;;;;;;5061163;28;20395;-75
2021/06/30 04:21:16;;;;;;;6.20;5.13;;;16.20;1.00;;;;;;5072760;28;20436;-75
2021/06/30 04:23:42;;;;;;;8.13;5.53;;;16.30;1.00;;;;;;5067713;28;20285;-74
2021/06/30 04:26:07;;;;;;;6.90;4.97;;;16.20;1.00;;;;;;5053949;28;20474;-74
2021/06/30 04:28:33;;;;;;;9.93;5.40;;;16.20;1.00;;;;;;5056502;28;20177;-75
2021/06/30 04:30:59;;;;;;;15.10;4.80;;;16.30;1.00;;;;;;5063784;28;20222;-75
2021/06/30 04:33:25;;;;;;;7.17;4.73;;;16.30;1.00;;;;;;5053369;28;20517;-75
2021/06/30 04:35:50;;;;;;;8.40;4.40;;;16.30;1.00;;;;;;5053333;28;20257;-75
2021/06/30 04:38:16;;;;;;;7.83;4.40;;;16.20;1.00;;;;;;5052837;28;20190;-75
2021/06/30 04:40:44;;;;;;;11.57;5.00;;;16.30;1.00;;;;;;5066812;28;20180;-75
2021/06/30 04:43:09;;;;;;;12.53;4.67;;;16.20;1.00;;;;;;5053303;28;20369;-75
2021/06/30 04:45:35;;;;;;;8.23;5.17;;;;;;;;;;5053344;28;20398;-75
2021/06/30 04:48:01;;;;;;;9.37;4.43;;;16.20;1.00;;;;;;5058895;28;20194;-77
2021/06/30 04:50:26;;;;;;;4.47;3.70;;;16.20;1.00;;;;;;5066055;28;20806;-76
2021/06/30 04:52:52;;;;;;;6.20;3.73;;;16.10;1.00;;;;;;5073008;28;20186;-76
2021/06/30 04:55:17;;;;;;;5.47;4.07;;;16.20;1.00;;;;;;5054094;28;20623;-74
2021/06/30 04:57:43;;;;;;;7.17;4.20;;;;;;;;;;5052765;28;20554;-74
2021/06/30 05:00:10;;;;;;;9.23;4.13;;;16.20;1.00;;;;;;5062375;28;20174;-74
2021/06/30 05:02:36;;;;;;;6.00;4.00;;;16.20;1.00;;;;;;5060899;28;20388;-74
2021/06/30 05:05:02;;;;;;;6.60;3.77;;;16.30;1.00;;;;;;5060662;28;20408;-74
2021/06/30 05:07:28;;;;;;;6.40;3.20;;;16.30;1.00;;;;;;5052127;28;20180;-74
2021/06/30 05:09:54;;;;;;;4.70;3.67;;;16.30;1.00;;;;;;5054497;28;20401;-73
2021/06/30 05:12:19;;;;;;;6.10;3.03;;;16.40;1.00;;;;;;5055363;28;20195;-74
2021/06/30 05:14:45;;;;;;;6.83;3.13;;;16.50;1.00;;;;;;5053891;28;20194;-74
2021/06/30 05:17:11;;;;;;;5.97;3.30;;;16.50;1.00;;;;;;5072036;28;20511;-74
2021/06/30 05:19:37;;;;;;;10.47;3.47;;;16.60;1.00;;;;;;5072575;28;20237;-74
2021/06/30 05:22:03;;;;;;;12.07;4.30;;;16.70;1.00;;;;;;5062173;28;20558;-74
2021/06/30 05:24:29;;;;;;;7.20;3.47;;;;;;;;;;5057755;28;20189;-74
2021/06/30 05:26:55;;;;;;;6.97;3.30;;;16.90;1.00;;;;;;5053167;28;20430;-75
2021/06/30 05:29:21;;;;;;;3.73;2.90;;;17.00;1.00;;;;;;5069347;28;20442;-76
2021/06/30 05:31:47;;;;;;;6.23;2.77;;;;;;;;;;5069019;28;20174;-76
2021/06/30 05:34:13;;;;;;;6.60;3.20;;;;;;;;;;5062399;28;20234;-76
2021/06/30 05:36:40;;;;;;;9.80;2.93;;;;;;;;;;5070080;28;20468;-75
2021/06/30 05:39:05;;;;;;;7.30;3.40;;;17.20;99.90;;;;;;5063277;28;20415;-75
2021/06/30 05:41:32;;;;;;;7.03;3.47;;;;;;;;;;5062601;28;20408;-74
2021/06/30 05:43:58;;;;;;;25.87;6.43;;;;;;;;;;5060244;28;20720;-73
2021/06/30 05:46:24;;;;;;;10.17;3.43;;;17.10;1.00;;;;;;5067164;28;20561;-74
2021/06/30 05:48:51;;;;;;;11.37;3.83;;;17.00;1.00;;;;;;5072798;28;20796;-74
2021/06/30 05:51:17;;;;;;;9.70;4.13;;;;;;;;;;5072186;28;20382;-74
2021/06/30 05:53:43;;;;;;;8.57;3.70;;;17.30;1.00;;;;;;5060487;28;20912;-74
2021/06/30 05:56:09;;;;;;;12.70;4.30;;;;;;;;;;5063753;28;20454;-75
2021/06/30 05:58:34;;;;;;;5.97;3.20;;;17.40;99.90;;;;;;5066853;28;20172;-75
2021/06/30 06:01:03;;;;;;;7.63;4.20;;;17.40;99.90;;;;;;5061769;28;20416;-75
2021/06/30 06:03:29;;;;;;;14.50;4.20;;;17.30;99.90;;;;;;5056951;28;20225;-76
2021/06/30 06:05:54;;;;;;;8.23;3.90;;;17.20;99.90;;;;;;5051453;28;20408;-76
2021/06/30 06:08:20;;;;;;;6.30;3.47;;;;;;;;;;5061321;28;20182;-75
2021/06/30 06:10:46;;;;;;;9.80;4.57;;;;;;;;;;5055946;28;20179;-73
2021/06/30 06:13:12;;;;;;;9.23;4.60;;;17.00;99.90;;;;;;5050328;28;20873;-74
2021/06/30 06:15:38;;;;;;;7.57;4.03;;;;;;;;;;5051936;28;20508;-74
2021/06/30 06:18:07;;;;;;;15.63;4.73;;;17.10;99.90;;;;;;5051458;28;20156;-73
2021/06/30 06:20:33;;;;;;;9.70;5.00;;;17.00;99.90;;;;;;5052094;28;20385;-73
2021/06/30 06:22:59;;;;;;;14.10;6.63;;;;;;;;;;5066638;28;20434;-73
2021/06/30 06:25:24;;;;;;;10.10;6.27;;;17.00;99.90;;;;;;5071947;28;20300;-74
2021/06/30 06:27:50;;;;;;;13.70;6.40;;;;;;;;;;5060775;28;20555;-74
2021/06/30 06:30:17;;;;;;;11.90;5.87;;;;;;;;;;5054150;28;20187;-74
2021/06/30 06:32:42;;;;;;;7.77;5.67;;;17.20;99.90;;;;;;5058990;28;20423;-74
2021/06/30 06:35:09;;;;;;;11.73;6.03;;;17.30;99.90;;;;;;5067244;28;20457;-74
2021/06/30 06:37:37;;;;;;;14.50;7.10;;;17.50;99.90;;;;;;5071559;28;20277;-74
2021/06/30 06:40:04;;;;;;;9.00;6.03;;;17.60;99.90;;;;;;5066719;28;20422;-74
2021/06/30 06:42:31;;;;;;;13.80;6.13;;;;;;;;;;5056081;28;20383;-73
2021/06/30 06:44:57;;;;;;;13.03;5.73;;;18.00;99.90;;;;;;5056280;28;20436;-73
2021/06/30 06:47:23;;;;;;;9.70;5.63;;;;;;;;;;5063258;28;20437;-73
2021/06/30 06:49:49;;;;;;;9.63;5.57;;;18.00;99.90;;;;;;5072218;28;20917;-73
2021/06/30 06:52:14;;;;;;;9.87;5.83;;;18.10;99.90;;;;;;5071385;28;20383;-74
2021/06/30 06:54:40;;;;;;;10.13;5.93;;;;;;;;;;5055362;28;20204;-74
2021/06/30 06:57:07;;;;;;;13.73;5.83;;;;;;;;;;5057935;28;20197;-75
2021/06/30 06:59:32;;;;;;;10.13;5.80;;;18.20;99.90;;;;;;5071893;28;20393;-75
2021/06/30 07:01:58;;;;;;;12.50;6.20;;;18.30;99.90;;;;;;5067926;28;20410;-76
2021/06/30 07:04:23;;;;;;;7.27;5.30;;;18.60;99.90;;;;;;5074929;28;20157;-74
2021/06/30 07:06:49;;;;;;;8.67;5.80;;;18.70;99.90;;;;;;5074747;28;20168;-73
2021/06/30 07:09:15;;;;;;;13.63;5.83;;;18.80;99.90;;;;;;5073870;28;20189;-74
2021/06/30 07:11:42;;;;;;;8.43;5.43;;;19.00;99.90;;;;;;5065548;28;20162;-75
2021/06/30 07:14:09;;;;;;;10.90;6.20;;;19.20;99.90;;;;;;5060792;28;20512;-76
2021/06/30 07:16:34;;;;;;;8.43;5.43;;;19.20;99.90;;;;;;5070109;28;20462;-76
2021/06/30 07:19:00;;;;;;;12.37;5.77;;;;;;;;;;5055385;28;20412;-76
2021/06/30 07:21:27;;;;;;;6.50;5.27;;;;;;;;;;5060133;28;20228;-76
2021/06/30 07:23:54;;;;;;;12.87;5.17;;;19.00;99.90;;;;;;5074770;28;20416;-76
2021/06/30 07:26:19;;;;;;;9.57;5.77;;;18.90;99.90;;;;;;5074527;28;20452;-73
2021/06/30 07:28:45;;;;;;;7.47;5.10;;;19.10;99.90;;;;;;5072299;28;20246;-73
2021/06/30 07:31:11;;;;;;;13.30;5.30;;;19.10;99.90;;;;;;5055337;28;20598;-73
2021/06/30 07:33:37;;;;;;;12.63;5.97;;;;;;;;;;5057298;28;20268;-73
2021/06/30 07:36:04;;;;;;;9.80;5.33;;;19.10;99.90;;;;;;5056544;28;20206;-73
2021/06/30 07:38:29;;;;;;;14.47;6.10;;;19.00;99.90;;;;;;5060938;28;20977;-73
2021/06/30 07:40:55;;;;;;;9.40;5.20;;;19.10;99.90;;;;;;5056046;28;20468;-73
2021/06/30 07:43:21;;;;;;;8.60;5.80;;;;;;;;;;5053534;28;20189;-76
2021/06/30 07:45:47;;;;;;;6.90;4.70;;;19.10;99.90;;;;;;5052651;28;20183;-76
2021/06/30 07:48:13;;;;;;;6.90;4.80;;;;;;;;;;5056525;28;20416;-76
2021/06/30 07:50:39;;;;;;;7.97;4.57;;;19.40;99.90;;;;;;5065925;28;20173;-76
2021/06/30 07:53:05;;;;;;;12.80;5.03;;;;;;;;;;5074069;28;20765;-76
2021/06/30 07:55:31;;;;;;;7.77;4.77;;;19.60;99.90;;;;;;5072527;28;20621;-76
2021/06/30 07:57:57;;;;;;;8.43;4.77;;;19.80;99.90;;;;;;5074291;28;20375;-73
2021/06/30 08:00:23;;;;;;;9.40;4.43;;;19.80;99.90;;;;;;5057606;28;20926;-73
2021/06/30 08:02:49;;;;;;;13.30;5.47;;;19.90;99.90;;;;;;5053570;28;20397;-73
2021/06/30 08:05:14;;;;;;;8.53;5.20;;;19.90;99.90;;;;;;5065047;28;20174;-73
2021/06/30 08:07:40;;;;;;;4.90;4.23;;;20.00;99.90;;;;;;5072684;28;20170;-73
2021/06/30 08:10:08;;;;;;;8.90;4.67;;;20.10;99.90;;;;;;5070632;28;20175;-73
2021/06/30 08:12:34;;;;;;;4.63;3.37;;;20.20;99.90;;;;;;5073369;28;20231;-76
2021/06/30 08:15:08;;;;;;;4.23;3.40;;;20.10;99.90;;;;;;5073000;28;20431;-76
2021/06/30 08:17:34;;;;;;;11.67;3.80;;;20.10;99.90;;;;;;5053228;28;20425;-76
2021/06/30 08:20:01;;;;;;;6.40;3.40;;;20.20;99.90;;;;;;5053172;28;20730;-76
2021/06/30 08:22:28;;;;;;;8.67;3.60;;;20.30;99.90;;;;;;5052906;28;20436;-76
2021/06/30 08:24:54;;;;;;;3.40;3.10;;;20.40;99.90;;;;;;5053410;28;20404;-76
2021/06/30 08:27:21;;;;;;;5.40;3.07;;;20.10;99.90;;;;;;5068616;28;20478;-75
2021/06/30 08:29:46;;;;;;;9.23;3.00;;;20.00;99.90;;;;;;5057624;28;20452;-76
2021/06/30 08:32:12;;;;;;;3.80;3.40;;;20.00;99.90;;;;;;5055570;28;20433;-76
2021/06/30 08:34:38;;;;;;;5.10;3.23;;;20.00;99.90;;;;;;5054831;28;20218;-76
2021/06/30 08:37:07;;;;;;;4.03;3.63;;;20.20;99.90;;;;;;5065552;28;20454;-76
2021/06/30 08:39:34;;;;;;;5.23;3.60;;;20.70;99.90;;;;;;5073455;28;20209;-76
2021/06/30 08:42:00;;;;;;;15.57;4.90;;;20.80;99.90;;;;;;5071459;28;20395;-76
2021/06/30 08:44:25;;;;;;;4.80;3.67;;;20.80;99.90;;;;;;5052783;28;20499;-76
2021/06/30 08:46:54;;;;;;;11.27;4.60;;;20.90;99.90;;;;;;5056247;28;20898;-76
2021/06/30 08:49:24;;;;;;;12.23;4.33;;;20.90;99.90;;;;;;5073156;28;20604;-76
2021/06/30 08:51:52;;;;;;;9.00;4.20;;;20.80;99.90;;;;;;5073050;28;20481;-76
2021/06/30 08:54:20;;;;;;;9.97;4.77;;;20.80;99.90;;;;;;5070996;28;20491;-77
2021/06/30 08:56:47;;;;;;;10.23;5.10;;;20.90;99.90;;;;;;5072923;28;20449;-73
2021/06/30 08:59:12;;;;;;;4.40;3.73;;;21.00;99.90;;;;;;5071698;28;20416;-73
2021/06/30 09:01:38;;;;;;;5.70;4.00;;;21.00;99.90;;;;;;5072602;28;20861;-73
2021/06/30 09:04:06;;;;;;;4.20;3.13;;;20.90;99.90;;;;;;5070145;28;20175;-73
2021/06/30 09:06:32;;;;;;;3.73;2.90;;;;;;;;;;5070837;28;20229;-73
2021/06/30 09:09:13;;;;;;;3.90;2.53;;;21.00;99.90;;;;;;5051941;28;20464;-73
2021/06/30 09:11:40;;;;;;;3.13;2.80;;;20.90;99.90;;;;;;5052391;28;20402;-73
2021/06/30 09:14:09;;;;;;;4.37;2.87;;;20.80;99.90;;;;;;5057318;28;20423;-73
2021/06/30 09:16:59;;;;;;;3.67;2.53;;;20.80;99.90;;;;;;5066394;28;20525;-73
2021/06/30 09:19:49;;;;;;;3.40;2.40;;;21.00;99.90;;;;;;5052924;28;20785;-73
2021/06/30 09:22:16;;;;;;;3.23;2.37;;;21.30;99.90;;;;;;5051884;28;20419;-73
2021/06/30 09:24:42;;;;;;;4.70;2.37;;;21.40;99.90;;;;;;5052203;28;20512;-73
2021/06/30 09:27:11;;;;;;;1.63;1.53;;;21.70;99.90;;;;;;5052542;28;20848;-73
2021/06/30 09:29:38;;;;;;;4.30;1.90;;;;;;;;;;5055837;28;20273;-73
2021/06/30 09:32:09;;;;;;;1.80;1.70;;;21.90;99.90;;;;;;5066722;28;20887;-73
2021/06/30 09:34:35;;;;;;;5.90;2.07;;;22.10;99.90;;;;;;5058339;28;20419;-73
2021/06/30 09:37:02;;;;;;;3.53;1.53;;;22.10;99.90;;;;;;5055604;28;20413;-73
2021/06/30 09:39:36;;;;;;;1.70;1.47;;;21.80;99.90;;;;;;5068305;28;20185;-73
2021/06/30 09:42:04;;;;;;;4.10;1.90;;;22.00;99.90;;;;;;5060711;28;20757;-75
2021/06/30 09:44:31;;;;;;;6.53;1.43;;;21.90;99.90;;;;;;5060967;28;20946;-76
2021/06/30 09:46:57;;;;;;;3.73;1.40;;;;;;;;;;5059760;28;20466;-76
2021/06/30 09:49:23;;;;;;;5.40;1.60;;;21.40;99.90;;;;;;5052336;28;20513;-76
2021/06/30 09:52:15;;;;;;;7.90;1.37;;;21.30;99.90;;;;;;5051936;28;20478;-76
2021/06/30 09:54:44;;;;;;;3.50;1.23;;;21.30;99.90;;;;;;5051487;28;20435;-76
2021/06/30 09:57:13;;;;;;;3.73;1.43;;;21.30;99.90;;;;;;5051843;28;20395;-76
2021/06/30 09:59:46;;;;;;;2.07;1.40;;;21.50;99.90;;;;;;5052516;28;20474;-73
2021/06/30 10:02:13;;;;;;;5.67;1.50;;;;;;;;;;5051182;28;20751;-73
2021/06/30 10:04:47;;;;;;;11.13;1.90;;;21.70;99.90;;;;;;5051988;28;20399;-73
2021/06/30 10:07:15;;;;;;;2.10;1.40;;;21.80;99.90;;;;;;5051857;28;20430;-73
2021/06/30 10:09:52;;;;;;;2.37;1.30;;;22.00;99.90;;;;;;5052119;28;20437;-73
2021/06/30 10:12:23;;;;;;;12.67;1.07;;;21.80;99.90;;;;;;5051207;28;20395;-73
2021/06/30 10:14:50;;;;;;;1.40;1.30;;;21.60;99.90;;;;;;5056032;28;20446;-74
2021/06/30 10:17:17;;;;;;;1.07;1.07;;;21.60;99.90;;;;;;5063503;28;20879;-73
2021/06/30 10:19:47;;;;;;;1.93;1.50;;;21.80;99.90;;;;;;5073593;28;20833;-73
2021/06/30 10:22:13;;;;;;;9.37;1.50;;;21.70;99.90;;;;;;5062476;28;20500;-73
2021/06/30 10:24:40;;;;;;;2.13;1.60;;;21.70;99.90;;;;;;5055925;28;20775;-73
2021/06/30 10:27:07;;;;;;;4.20;1.97;;;21.80;99.90;;;;;;5064529;28;20438;-73
2021/06/30 10:29:42;;;;;;;2.37;1.80;;;21.70;99.90;;;;;;5060710;28;20424;-73
2021/06/30 10:32:14;;;;;;;2.07;1.57;;;21.80;99.90;;;;;;5069530;28;20425;-73
2021/06/30 10:34:46;;;;;;;5.70;1.83;;;22.00;99.90;;;;;;5064663;28;20514;-73
2021/06/30 10:37:27;;;;;;;5.90;1.73;;;22.30;99.90;;;;;;5057234;28;20430;-79
2021/06/30 10:39:56;;;;;;;1.23;1.13;;;22.40;99.90;;;;;;5058976;28;20846;-74
2021/06/30 10:42:34;;;;;;;1.47;1.20;;;22.40;99.90;;;;;;5061686;28;20447;-74
2021/06/30 10:45:12;;;;;;;1.50;1.27;;;22.30;99.90;;;;;;5062632;28;20515;-75
2021/06/30 10:47:45;;;;;;;2.03;1.13;;;22.40;99.90;;;;;;5060815;28;20904;-76
2021/06/30 10:50:20;;;;;;;1.57;1.20;;;22.60;99.90;;;;;;5075330;28;20422;-75
2021/06/30 10:53:08;;;;;;;2.80;1.50;;;22.50;99.90;;;;;;5060600;28;20434;-77
2021/06/30 10:55:35;;;;;;;1.10;0.87;;;22.60;99.90;;;;;;5052249;28;20558;-76
2021/06/30 10:58:10;;;;;;;1.40;1.30;;;22.90;99.90;;;;;;5062069;28;20454;-75
2021/06/30 11:00:48;;;;;;;1.93;1.30;;;23.20;99.90;;;;;;5073007;28;20386;-76
2021/06/30 11:03:28;;;;;;;3.27;1.30;;;23.30;99.90;;;;;;5071265;28;20501;-78
2021/06/30 11:06:20;;;;;;;1.53;1.03;;;23.40;99.90;;;;;;5065666;28;20422;-76
2021/06/30 11:09:23;;;;;;;2.30;1.27;;;23.20;99.90;;;;;;5052631;28;20561;-76
2021/06/30 11:11:56;;;;;;;9.90;1.60;;;23.10;99.90;;;;;;5054175;28;20436;-76
2021/06/30 11:14:37;;;;;;;2.67;1.60;;;23.00;99.90;;;;;;5072384;28;20425;-76
2021/06/30 11:17:02;;;;;;;1.40;1.30;;;23.00;99.90;;;;;;5071203;28;20427;-76
2021/06/30 11:19:31;;;;;;;1.67;1.50;;;22.90;99.90;;;;;;5042483;28;21058;-76
2021/06/30 11:22:01;;;;;;;4.90;1.43;;;23.10;99.90;;;;;;5062543;28;20293;-76
2021/06/30 11:24:39;;;;;;;4.47;1.73;;;23.10;99.90;;;;;;5067651;28;20419;-74
2021/06/30 11:27:26;;;;;;;3.80;2.10;;;23.10;99.90;;;;;;5052537;28;20510;-76
2021/06/30 11:30:05;;;;;;;6.30;2.03;;;23.00;99.90;;;;;;5068336;28;20447;-74
2021/06/30 11:32:31;;;;;;;4.33;2.43;;;23.10;99.90;;;;;;5064393;28;20441;-76
2021/06/30 11:35:00;;;;;;;4.30;2.27;;;23.00;99.90;;;;;;5055251;28;20524;-75
2021/06/30 11:37:27;;;;;;;2.10;2.00;;;22.90;99.90;;;;;;5065069;28;20174;-76
2021/06/30 11:40:00;;;;;;;2.77;2.57;;;22.80;99.90;;;;;;5054879;28;20927;-76
2021/06/30 11:42:31;;;;;;;3.53;3.23;;;22.70;99.90;;;;;;5073413;28;20409;-76
2021/06/30 11:44:57;;;;;;;9.83;3.57;;;22.60;99.90;;;;;;5075435;28;20434;-76
2021/06/30 11:47:35;;;;;;;3.20;3.00;;;22.50;99.90;;;;;;5075025;28;20405;-76
2021/06/30 11:50:04;;;;;;;2.60;2.40;;;22.40;99.90;;;;;;5075308;28;20624;-75
2021/06/30 11:52:30;;;;;;;4.60;2.70;;;22.20;99.90;;;;;;5055372;28;20440;-75
2021/06/30 11:54:57;;;;;;;4.00;3.10;;;22.20;99.90;;;;;;5064558;28;20924;-76
2021/06/30 11:57:23;;;;;;;4.80;2.73;;;22.20;99.90;;;;;;5066877;28;20603;-75
2021/06/30 12:00:08;;;;;;;3.00;2.57;;;21.90;99.90;;;;;;5061812;28;20435;-72
2021/06/30 12:02:47;;;;;;;5.37;2.83;;;21.80;99.90;;;;;;5052020;28;20644;-73
2021/06/30 12:05:14;;;;;;;4.73;3.33;;;21.80;99.90;;;;;;5053448;28;20423;-72
2021/06/30 12:07:51;;;;;;;2.77;2.30;;;;;;;;;;5057214;28;20763;-72
2021/06/30 12:10:17;;;;;;;9.30;2.30;;;21.90;99.90;;;;;;5064293;28;20427;-72
2021/06/30 12:12:43;;;;;;;3.30;2.47;;;;;;;;;;5063352;28;20536;-72
2021/06/30 12:15:11;;;;;;;3.60;2.40;;;22.10;99.90;;;;;;5063881;28;20564;-72
2021/06/30 12:17:51;;;;;;;7.93;2.43;;;22.30;99.90;;;;;;5056565;28;20789;-73
2021/06/30 12:20:18;;;;;;;3.33;2.53;;;22.70;99.90;;;;;;5072313;28;20380;-73
2021/06/30 12:22:44;;;;;;;3.30;2.40;;;22.90;99.90;;;;;;5067524;28;20495;-73
2021/06/30 12:25:24;;;;;;;3.00;1.93;;;23.00;99.90;;;;;;5062152;28;20406;-73
2021/06/30 12:27:55;;;;;;;3.33;2.10;;;22.90;99.90;;;;;;5073128;28;20462;-73
2021/06/30 12:30:24;;;;;;;2.60;1.53;;;22.60;99.90;;;;;;5055533;28;20418;-75
2021/06/30 12:32:55;;;;;;;6.40;2.10;;;22.50;99.90;;;;;;5053459;28;20855;-75
2021/06/30 12:35:25;;;;;;;4.60;1.83;;;22.20;99.90;;;;;;5052787;28;20466;-75
2021/06/30 12:37:59;;;;;;;3.60;1.50;;;22.10;99.90;;;;;;5066317;28;20420;-76
2021/06/30 12:40:25;;;;;;;2.50;1.50;;;21.90;99.90;;;;;;5063924;28;20440;-75
2021/06/30 12:43:21;;;;;;;2.00;1.40;;;21.70;99.90;;;;;;5070349;28;20426;-75
2021/06/30 12:45:49;;;;;;;1.93;1.43;;;21.30;99.90;;;;;;5061180;28;20438;-75
2021/06/30 12:48:16;;;;;;;1.30;1.20;;;21.30;99.90;;;;;;5059645;28;20414;-75
2021/06/30 12:50:53;;;;;;;8.83;1.40;;;21.40;99.90;;;;;;5070410;28;20431;-75
2021/06/30 12:53:24;;;;;;;1.80;1.27;;;21.40;99.90;;;;;;5072874;28;20398;-76
2021/06/30 12:56:02;;;;;;;4.10;1.80;;;21.80;99.90;;;;;;5060051;28;20511;-75
2021/06/30 12:58:38;;;;;;;3.17;1.60;;;21.90;99.90;;;;;;5052701;28;20480;-75
2021/06/30 13:01:05;;;;;;;3.90;1.60;;;22.10;99.90;;;;;;5055963;28;20432;-73
2021/06/30 13:03:35;;;;;;;1.83;1.40;;;22.20;99.90;;;;;;5070711;28;20446;-73
2021/06/30 13:06:16;;;;;;;2.07;1.27;;;22.20;99.90;;;;;;5070001;28;20406;-73